Essex Center, Vermont
Current Conditions -  °F | °C
As of 7:54 AM on Wednesday 22 Oct 2014 (Local Time) from KBTV Reporting Station
Overcast Overcast  
Wind Chill: 44°   Ceiling: 400
Heat Index: 47°   Visibility: 10mi
Dew Point: 44°   Wind: 7mph
Humidity: 90%   Direction: 340°NNW
Pressure: 30.17"   Gusts: NA
Location:  44.5358°N, 73.0548°W
Report Text: KBTV 221154Z 34006KT 10SM OVC004 08/07 A3017 RMK AO2 SLP217 70022 T00830067 10083 20078
Loading
Personal Weather Stations






























Interactive Weather Map
Tropical Storm Tracking
New forecast layout! Learn more

10-Day Weather Forecast

Advertisements
Track Severe Weather on mobile